sensor_id;sensor_type;location;lat;lon;timestamp;pressure;altitude;pressure_sealevel;temperature;humidity
70833;BME280;58452;59.418;17.962;2022-08-24T00:01:40;102113.75;;;14.81;73.49
70833;BME280;58452;59.418;17.962;2022-08-24T00:04:05;102112.25;;;14.78;73.05
70833;BME280;58452;59.418;17.962;2022-08-24T00:06:31;102119.88;;;14.80;72.82
70833;BME280;58452;59.418;17.962;2022-08-24T00:08:57;102116.34;;;14.81;72.67
70833;BME280;58452;59.418;17.962;2022-08-24T00:11:23;102108.13;;;14.76;73.18
70833;BME280;58452;59.418;17.962;2022-08-24T00:13:50;102108.13;;;14.76;73.19
70833;BME280;58452;59.418;17.962;2022-08-24T00:16:16;102105.38;;;14.67;73.97
70833;BME280;58452;59.418;17.962;2022-08-24T00:18:43;102109.22;;;14.63;74.15
70833;BME280;58452;59.418;17.962;2022-08-24T00:21:08;102101.53;;;14.62;73.60
70833;BME280;58452;59.418;17.962;2022-08-24T00:23:34;102117.13;;;14.62;73.64
70833;BME280;58452;59.418;17.962;2022-08-24T00:26:00;102120.13;;;14.57;73.55
70833;BME280;58452;59.418;17.962;2022-08-24T00:28:26;102110.28;;;14.51;73.41
70833;BME280;58452;59.418;17.962;2022-08-24T00:30:52;102119.97;;;14.49;73.34
70833;BME280;58452;59.418;17.962;2022-08-24T00:33:17;102106.00;;;14.41;73.21
70833;BME280;58452;59.418;17.962;2022-08-24T00:35:43;102104.06;;;14.33;73.74
70833;BME280;58452;59.418;17.962;2022-08-24T00:38:08;102110.47;;;14.29;73.71
70833;BME280;58452;59.418;17.962;2022-08-24T00:40:38;102116.97;;;14.24;74.02
70833;BME280;58452;59.418;17.962;2022-08-24T00:43:07;102107.41;;;14.24;74.23
70833;BME280;58452;59.418;17.962;2022-08-24T00:45:36;102115.06;;;14.16;73.89
70833;BME280;58452;59.418;17.962;2022-08-24T00:48:07;102111.22;;;14.10;74.22
70833;BME280;58452;59.418;17.962;2022-08-24T00:50:36;102103.63;;;13.98;74.26
70833;BME280;58452;59.418;17.962;2022-08-24T00:53:11;102106.00;;;14.01;73.97
70833;BME280;58452;59.418;17.962;2022-08-24T00:55:42;102101.28;;;13.95;74.25
70833;BME280;58452;59.418;17.962;2022-08-24T00:58:17;102106.81;;;14.01;73.80
70833;BME280;58452;59.418;17.962;2022-08-24T01:00:48;102102.69;;;13.99;73.49
70833;BME280;58452;59.418;17.962;2022-08-24T01:03:15;102108.09;;;13.86;74.13
70833;BME280;58452;59.418;17.962;2022-08-24T01:05:41;102111.94;;;13.92;74.33
70833;BME280;58452;59.418;17.962;2022-08-24T01:08:10;102113.03;;;13.89;74.64
70833;BME280;58452;59.418;17.962;2022-08-24T01:10:44;102112.72;;;13.83;74.49
70833;BME280;58452;59.418;17.962;2022-08-24T01:13:12;102107.63;;;13.72;74.66
70833;BME280;58452;59.418;17.962;2022-08-24T01:15:41;102115.63;;;13.68;74.64
70833;BME280;58452;59.418;17.962;2022-08-24T01:18:12;102119.38;;;13.76;74.39
70833;BME280;58452;59.418;17.962;2022-08-24T01:21:26;102112.28;;;13.78;73.92
70833;BME280;58452;59.418;17.962;2022-08-24T01:24:00;102123.03;;;13.73;74.13
70833;BME280;58452;59.418;17.962;2022-08-24T01:26:33;102124.09;;;13.61;74.85
70833;BME280;58452;59.418;17.962;2022-08-24T01:29:04;102129.97;;;13.63;74.74
70833;BME280;58452;59.418;17.962;2022-08-24T01:31:31;102123.50;;;13.57;75.10
70833;BME280;58452;59.418;17.962;2022-08-24T01:33:57;102127.31;;;13.53;74.83
70833;BME280;58452;59.418;17.962;2022-08-24T01:39:02;102122.50;;;13.49;74.81
70833;BME280;58452;59.418;17.962;2022-08-24T01:41:28;102117.22;;;13.39;74.27
70833;BME280;58452;59.418;17.962;2022-08-24T01:43:53;102120.31;;;13.33;74.60
70833;BME280;58452;59.418;17.962;2022-08-24T01:46:19;102125.81;;;13.40;74.78
70833;BME280;58452;59.418;17.962;2022-08-24T01:48:45;102126.41;;;13.43;74.07
70833;BME280;58452;59.418;17.962;2022-08-24T01:51:10;102118.88;;;13.40;74.25
70833;BME280;58452;59.418;17.962;2022-08-24T01:53:36;102126.34;;;13.34;74.60
70833;BME280;58452;59.418;17.962;2022-08-24T01:56:01;102119.66;;;13.31;74.97
70833;BME280;58452;59.418;17.962;2022-08-24T01:58:27;102126.03;;;13.27;75.10
70833;BME280;58452;59.418;17.962;2022-08-24T02:00:52;102131.47;;;13.24;75.25
70833;BME280;58452;59.418;17.962;2022-08-24T02:03:18;102132.41;;;13.23;75.31
70833;BME280;58452;59.418;17.962;2022-08-24T02:05:44;102128.16;;;13.22;74.98
70833;BME280;58452;59.418;17.962;2022-08-24T02:08:10;102127.34;;;13.21;74.84
70833;BME280;58452;59.418;17.962;2022-08-24T02:10:35;102126.03;;;13.27;74.59
70833;BME280;58452;59.418;17.962;2022-08-24T02:13:01;102134.06;;;13.24;74.61
70833;BME280;58452;59.418;17.962;2022-08-24T02:15:35;102116.84;;;13.23;74.27
70833;BME280;58452;59.418;17.962;2022-08-24T02:18:05;102127.47;;;13.20;74.38
70833;BME280;58452;59.418;17.962;2022-08-24T02:20:31;102130.53;;;13.14;74.50
70833;BME280;58452;59.418;17.962;2022-08-24T02:22:56;102132.19;;;13.15;74.22
70833;BME280;58452;59.418;17.962;2022-08-24T02:25:22;102128.91;;;13.13;74.13
70833;BME280;58452;59.418;17.962;2022-08-24T02:27:49;102134.47;;;12.97;74.81
70833;BME280;58452;59.418;17.962;2022-08-24T02:30:15;102142.59;;;12.93;74.81
70833;BME280;58452;59.418;17.962;2022-08-24T02:32:40;102144.94;;;12.96;74.58
70833;BME280;58452;59.418;17.962;2022-08-24T02:35:06;102139.31;;;12.91;74.95
70833;BME280;58452;59.418;17.962;2022-08-24T02:37:33;102149.81;;;12.89;74.81
70833;BME280;58452;59.418;17.962;2022-08-24T02:39:58;102148.28;;;12.87;74.75
70833;BME280;58452;59.418;17.962;2022-08-24T02:42:24;102151.13;;;12.84;74.90
70833;BME280;58452;59.418;17.962;2022-08-24T02:44:50;102156.34;;;12.72;74.87
70833;BME280;58452;59.418;17.962;2022-08-24T02:47:15;102144.31;;;12.71;74.86
70833;BME280;58452;59.418;17.962;2022-08-24T02:49:41;102146.91;;;12.71;74.86
70833;BME280;58452;59.418;17.962;2022-08-24T02:52:07;102136.78;;;12.68;74.74
70833;BME280;58452;59.418;17.962;2022-08-24T02:54:32;102144.31;;;12.71;74.51
70833;BME280;58452;59.418;17.962;2022-08-24T02:56:58;102144.56;;;12.68;74.46
70833;BME280;58452;59.418;17.962;2022-08-24T02:59:23;102138.22;;;12.61;75.15
70833;BME280;58452;59.418;17.962;2022-08-24T03:01:49;102141.84;;;12.59;75.09
70833;BME280;58452;59.418;17.962;2022-08-24T03:04:16;102140.09;;;12.59;75.08
70833;BME280;58452;59.418;17.962;2022-08-24T03:06:41;102136.34;;;12.52;75.03
70833;BME280;58452;59.418;17.962;2022-08-24T03:09:08;102142.69;;;12.48;75.52
70833;BME280;58452;59.418;17.962;2022-08-24T03:11:34;102132.09;;;12.51;75.25
70833;BME280;58452;59.418;17.962;2022-08-24T03:13:59;102132.47;;;12.47;75.13
70833;BME280;58452;59.418;17.962;2022-08-24T03:16:26;102133.41;;;12.46;75.01
70833;BME280;58452;59.418;17.962;2022-08-24T03:18:52;102137.75;;;12.45;75.01
70833;BME280;58452;59.418;17.962;2022-08-24T03:21:17;102130.59;;;12.38;75.27
70833;BME280;58452;59.418;17.962;2022-08-24T03:23:43;102140.84;;;12.39;74.84
70833;BME280;58452;59.418;17.962;2022-08-24T03:26:09;102141.53;;;12.41;74.71
70833;BME280;58452;59.418;17.962;2022-08-24T03:28:35;102143.66;;;12.36;75.13
70833;BME280;58452;59.418;17.962;2022-08-24T03:31:00;102141.28;;;12.33;75.24
70833;BME280;58452;59.418;17.962;2022-08-24T03:33:26;102138.50;;;12.25;75.51
70833;BME280;58452;59.418;17.962;2022-08-24T03:35:51;102140.13;;;12.26;75.33
70833;BME280;58452;59.418;17.962;2022-08-24T03:38:17;102138.94;;;12.30;74.96
70833;BME280;58452;59.418;17.962;2022-08-24T03:40:43;102146.00;;;12.28;75.16
70833;BME280;58452;59.418;17.962;2022-08-24T03:43:08;102143.88;;;12.22;75.60
70833;BME280;58452;59.418;17.962;2022-08-24T03:45:54;102138.59;;;12.12;75.90
70833;BME280;58452;59.418;17.962;2022-08-24T03:48:19;102148.72;;;12.15;75.80
70833;BME280;58452;59.418;17.962;2022-08-24T03:50:44;102151.88;;;12.19;75.38
70833;BME280;58452;59.418;17.962;2022-08-24T03:53:10;102145.78;;;12.20;75.08
70833;BME280;58452;59.418;17.962;2022-08-24T03:55:35;102148.38;;;12.20;75.46
70833;BME280;58452;59.418;17.962;2022-08-24T03:58:01;102143.78;;;12.23;75.27
70833;BME280;58452;59.418;17.962;2022-08-24T04:00:26;102155.88;;;12.23;75.42
70833;BME280;58452;59.418;17.962;2022-08-24T04:02:51;102150.25;;;12.18;75.71
70833;BME280;58452;59.418;17.962;2022-08-24T04:05:17;102155.19;;;12.21;75.45
70833;BME280;58452;59.418;17.962;2022-08-24T04:07:42;102156.63;;;12.25;75.46
70833;BME280;58452;59.418;17.962;2022-08-24T04:10:08;102166.72;;;12.17;76.36
70833;BME280;58452;59.418;17.962;2022-08-24T04:12:35;102162.47;;;12.16;76.50
70833;BME280;58452;59.418;17.962;2022-08-24T04:15:00;102158.47;;;12.23;76.24
70833;BME280;58452;59.418;17.962;2022-08-24T04:17:26;102157.88;;;12.19;76.34
70833;BME280;58452;59.418;17.962;2022-08-24T04:19:52;102150.94;;;12.20;76.68
70833;BME280;58452;59.418;17.962;2022-08-24T04:22:26;102152.13;;;12.27;76.47
70833;BME280;58452;59.418;17.962;2022-08-24T04:24:52;102141.44;;;12.32;76.38
70833;BME280;58452;59.418;17.962;2022-08-24T04:27:17;102140.00;;;12.28;76.56
70833;BME280;58452;59.418;17.962;2022-08-24T04:29:43;102133.75;;;12.30;76.59
70833;BME280;58452;59.418;17.962;2022-08-24T04:32:08;102136.13;;;12.33;76.92
70833;BME280;58452;59.418;17.962;2022-08-24T04:34:34;102138.25;;;12.39;76.70
70833;BME280;58452;59.418;17.962;2022-08-24T04:37:00;102142.69;;;12.48;76.64
70833;BME280;58452;59.418;17.962;2022-08-24T04:39:26;102137.50;;;12.48;76.84
70833;BME280;58452;59.418;17.962;2022-08-24T04:41:51;102139.75;;;12.53;77.07
70833;BME280;58452;59.418;17.962;2022-08-24T04:44:17;102140.81;;;12.61;77.24
70833;BME280;58452;59.418;17.962;2022-08-24T04:46:43;102142.91;;;12.67;77.50
70833;BME280;58452;59.418;17.962;2022-08-24T04:49:08;102141.47;;;12.74;77.58
70833;BME280;58452;59.418;17.962;2022-08-24T04:51:34;102143.34;;;12.84;77.56
70833;BME280;58452;59.418;17.962;2022-08-24T04:53:59;102154.63;;;12.94;77.59
70833;BME280;58452;59.418;17.962;2022-08-24T04:56:25;102147.91;;;13.02;77.64
70833;BME280;58452;59.418;17.962;2022-08-24T04:58:52;102143.41;;;13.15;77.71
70833;BME280;58452;59.418;17.962;2022-08-24T05:01:20;102139.09;;;13.26;77.91
70833;BME280;58452;59.418;17.962;2022-08-24T05:03:49;102141.53;;;13.38;78.29
70833;BME280;58452;59.418;17.962;2022-08-24T05:06:18;102139.56;;;13.51;78.02
70833;BME280;58452;59.418;17.962;2022-08-24T05:08:44;102144.69;;;13.62;77.77
70833;BME280;58452;59.418;17.962;2022-08-24T05:11:11;102147.94;;;13.76;78.09
70833;BME280;58452;59.418;17.962;2022-08-24T05:13:38;102139.09;;;13.88;78.10
70833;BME280;58452;59.418;17.962;2022-08-24T05:16:10;102141.34;;;14.02;78.17
70833;BME280;58452;59.418;17.962;2022-08-24T05:18:37;102151.66;;;14.13;77.80
70833;BME280;58452;59.418;17.962;2022-08-24T05:21:08;102154.31;;;14.23;77.51
70833;BME280;58452;59.418;17.962;2022-08-24T05:23:38;102156.00;;;14.33;77.00
70833;BME280;58452;59.418;17.962;2022-08-24T05:26:09;102153.06;;;14.47;77.10
70833;BME280;58452;59.418;17.962;2022-08-24T05:28:36;102154.88;;;14.56;76.57
70833;BME280;58452;59.418;17.962;2022-08-24T05:31:10;102142.84;;;14.55;75.84
70833;BME280;58452;59.418;17.962;2022-08-24T05:33:36;102147.78;;;14.68;74.96
70833;BME280;58452;59.418;17.962;2022-08-24T05:36:03;102160.97;;;14.86;74.72
70833;BME280;58452;59.418;17.962;2022-08-24T05:38:30;102156.44;;;14.97;74.22
70833;BME280;58452;59.418;17.962;2022-08-24T05:40:57;102162.34;;;15.09;74.03
70833;BME280;58452;59.418;17.962;2022-08-24T05:43:22;102159.59;;;15.20;73.38
70833;BME280;58452;59.418;17.962;2022-08-24T05:45:48;102167.97;;;15.33;72.90
70833;BME280;58452;59.418;17.962;2022-08-24T05:48:13;102164.69;;;15.41;72.27
70833;BME280;58452;59.418;17.962;2022-08-24T05:50:39;102161.16;;;15.51;71.51
70833;BME280;58452;59.418;17.962;2022-08-24T05:53:04;102161.66;;;15.64;71.30
70833;BME280;58452;59.418;17.962;2022-08-24T05:55:30;102161.63;;;15.74;70.86
70833;BME280;58452;59.418;17.962;2022-08-24T05:57:55;102168.91;;;15.80;69.89
70833;BME280;58452;59.418;17.962;2022-08-24T06:00:21;102163.09;;;15.96;69.99
70833;BME280;58452;59.418;17.962;2022-08-24T06:02:47;102163.28;;;15.85;68.66
70833;BME280;58452;59.418;17.962;2022-08-24T06:05:17;102164.91;;;15.86;68.39
70833;BME280;58452;59.418;17.962;2022-08-24T06:07:42;102159.81;;;15.94;67.86
70833;BME280;58452;59.418;17.962;2022-08-24T06:10:08;102155.13;;;15.97;67.35
70833;BME280;58452;59.418;17.962;2022-08-24T06:12:34;102158.94;;;16.12;68.07
70833;BME280;58452;59.418;17.962;2022-08-24T06:15:00;102153.72;;;16.12;66.99
70833;BME280;58452;59.418;17.962;2022-08-24T06:17:26;102160.53;;;16.23;66.70
70833;BME280;58452;59.418;17.962;2022-08-24T06:19:51;102165.97;;;16.30;65.60
70833;BME280;58452;59.418;17.962;2022-08-24T06:22:17;102174.78;;;16.29;64.70
70833;BME280;58452;59.418;17.962;2022-08-24T06:24:42;102172.13;;;16.38;65.32
70833;BME280;58452;59.418;17.962;2022-08-24T06:27:27;102170.81;;;16.52;65.37
70833;BME280;58452;59.418;17.962;2022-08-24T06:30:02;102172.16;;;16.66;64.78
70833;BME280;58452;59.418;17.962;2022-08-24T06:32:28;102169.03;;;16.52;64.45
70833;BME280;58452;59.418;17.962;2022-08-24T06:34:55;102165.06;;;16.58;63.81
70833;BME280;58452;59.418;17.962;2022-08-24T06:37:21;102162.34;;;16.50;63.44
70833;BME280;58452;59.418;17.962;2022-08-24T06:39:51;102165.06;;;16.58;63.98
70833;BME280;58452;59.418;17.962;2022-08-24T06:42:17;102165.59;;;16.62;64.02
70833;BME280;58452;59.418;17.962;2022-08-24T06:44:42;102167.63;;;16.68;64.65
70833;BME280;58452;59.418;17.962;2022-08-24T06:47:08;102164.03;;;16.69;64.75
70833;BME280;58452;59.418;17.962;2022-08-24T06:49:34;102172.91;;;16.76;64.67
70833;BME280;58452;59.418;17.962;2022-08-24T06:52:03;102175.81;;;16.73;64.97
70833;BME280;58452;59.418;17.962;2022-08-24T06:54:29;102180.50;;;16.69;64.63
70833;BME280;58452;59.418;17.962;2022-08-24T06:56:54;102184.84;;;16.78;64.99
70833;BME280;58452;59.418;17.962;2022-08-24T06:59:20;102194.84;;;16.83;63.07
70833;BME280;58452;59.418;17.962;2022-08-24T07:01:46;102199.84;;;16.67;63.31
70833;BME280;58452;59.418;17.962;2022-08-24T07:04:11;102205.75;;;16.69;63.15
70833;BME280;58452;59.418;17.962;2022-08-24T07:06:37;102215.16;;;16.79;63.18
70833;BME280;58452;59.418;17.962;2022-08-24T07:09:03;102207.19;;;16.81;63.44
70833;BME280;58452;59.418;17.962;2022-08-24T07:11:29;102210.47;;;16.83;62.83
70833;BME280;58452;59.418;17.962;2022-08-24T07:13:56;102210.88;;;16.60;62.30
70833;BME280;58452;59.418;17.962;2022-08-24T07:16:22;102213.41;;;16.70;61.99
70833;BME280;58452;59.418;17.962;2022-08-24T07:18:48;102209.13;;;16.79;62.17
70833;BME280;58452;59.418;17.962;2022-08-24T07:21:13;102208.84;;;16.82;62.52
70833;BME280;58452;59.418;17.962;2022-08-24T07:23:43;102213.75;;;16.85;63.62
70833;BME280;58452;59.418;17.962;2022-08-24T07:26:14;102216.00;;;16.80;63.37
70833;BME280;58452;59.418;17.962;2022-08-24T07:28:40;102208.84;;;16.82;63.06
70833;BME280;58452;59.418;17.962;2022-08-24T07:31:06;102218.41;;;16.91;62.69
70833;BME280;58452;59.418;17.962;2022-08-24T07:33:34;102212.06;;;16.93;63.17
70833;BME280;58452;59.418;17.962;2022-08-24T07:36:00;102212.19;;;16.92;63.05
70833;BME280;58452;59.418;17.962;2022-08-24T07:38:27;102202.81;;;16.99;63.30
70833;BME280;58452;59.418;17.962;2022-08-24T07:40:52;102214.31;;;17.06;63.77
70833;BME280;58452;59.418;17.962;2022-08-24T07:43:18;102203.94;;;17.14;63.26
70833;BME280;58452;59.418;17.962;2022-08-24T07:45:46;102213.34;;;17.07;63.26
70833;BME280;58452;59.418;17.962;2022-08-24T07:48:12;102211.13;;;17.12;62.55
70833;BME280;58452;59.418;17.962;2022-08-24T07:50:38;102211.13;;;17.12;61.99
70833;BME280;58452;59.418;17.962;2022-08-24T07:53:03;102210.44;;;17.10;61.72
70833;BME280;58452;59.418;17.962;2022-08-24T07:55:29;102211.16;;;17.02;63.68
70833;BME280;58452;59.418;17.962;2022-08-24T07:57:54;102217.72;;;17.06;63.16
70833;BME280;58452;59.418;17.962;2022-08-24T08:00:20;102227.38;;;17.06;62.53
70833;BME280;58452;59.418;17.962;2022-08-24T08:02:47;102225.13;;;17.11;61.02
70833;BME280;58452;59.418;17.962;2022-08-24T08:05:15;102224.53;;;17.17;60.58
70833;BME280;58452;59.418;17.962;2022-08-24T08:07:41;102225.81;;;17.31;60.73
70833;BME280;58452;59.418;17.962;2022-08-24T08:10:07;102225.94;;;17.47;60.41
70833;BME280;58452;59.418;17.962;2022-08-24T08:12:33;102223.06;;;17.50;60.47
70833;BME280;58452;59.418;17.962;2022-08-24T08:14:59;102210.06;;;17.58;61.66
70833;BME280;58452;59.418;17.962;2022-08-24T08:17:25;102212.97;;;17.73;60.15
70833;BME280;58452;59.418;17.962;2022-08-24T08:19:51;102212.31;;;17.71;57.81
70833;BME280;58452;59.418;17.962;2022-08-24T08:22:16;102217.94;;;17.84;58.56
70833;BME280;58452;59.418;17.962;2022-08-24T08:25:00;102218.97;;;17.91;57.57
70833;BME280;58452;59.418;17.962;2022-08-24T08:27:26;102219.66;;;17.93;56.46
70833;BME280;58452;59.418;17.962;2022-08-24T08:29:51;102221.56;;;17.91;56.41
70833;BME280;58452;59.418;17.962;2022-08-24T08:32:17;102228.19;;;18.03;57.52
70833;BME280;58452;59.418;17.962;2022-08-24T08:34:45;102235.41;;;18.09;56.01
70833;BME280;58452;59.418;17.962;2022-08-24T08:37:11;102236.81;;;18.21;56.39
70833;BME280;58452;59.418;17.962;2022-08-24T08:39:37;102231.06;;;18.18;56.38
70833;BME280;58452;59.418;17.962;2022-08-24T08:53:25;102226.81;;;18.50;57.72
70833;BME280;58452;59.418;17.962;2022-08-24T08:56:22;102221.31;;;18.53;56.93
70833;BME280;58452;59.418;17.962;2022-08-24T08:59:02;102207.16;;;18.38;55.24
70833;BME280;58452;59.418;17.962;2022-08-24T09:04:41;102219.63;;;18.78;54.57
70833;BME280;58452;59.418;17.962;2022-08-24T09:26:58;102211.66;;;19.12;55.11
70833;BME280;58452;59.418;17.962;2022-08-24T09:35:34;102217.63;;;19.63;53.87
70833;BME280;58452;59.418;17.962;2022-08-24T09:38:11;102218.44;;;19.71;53.21
70833;BME280;58452;59.418;17.962;2022-08-24T10:05:29;102214.91;;;20.66;51.02
70833;BME280;58452;59.418;17.962;2022-08-24T10:16:41;102208.41;;;20.85;53.37
70833;BME280;58452;59.418;17.962;2022-08-24T10:21:52;102217.69;;;21.26;52.51
70833;BME280;58452;59.418;17.962;2022-08-24T10:25:02;102215.22;;;21.48;52.17
70833;BME280;58452;59.418;17.962;2022-08-24T10:35:16;102213.22;;;21.87;50.33
70833;BME280;58452;59.418;17.962;2022-08-24T10:41:18;102222.53;;;22.12;49.06
70833;BME280;58452;59.418;17.962;2022-08-24T10:46:58;102223.00;;;22.30;48.83
70833;BME280;58452;59.418;17.962;2022-08-24T10:49:52;102230.31;;;22.35;49.85
70833;BME280;58452;59.418;17.962;2022-08-24T10:54:51;102225.38;;;22.61;48.73
70833;BME280;58452;59.418;17.962;2022-08-24T10:57:39;102217.88;;;22.73;47.40
70833;BME280;58452;59.418;17.962;2022-08-24T11:00:14;102220.38;;;22.30;48.66
70833;BME280;58452;59.418;17.962;2022-08-24T11:02:42;102212.91;;;22.49;48.70
70833;BME280;58452;59.418;17.962;2022-08-24T11:05:29;102211.25;;;22.62;49.26
70833;BME280;58452;59.418;17.962;2022-08-24T11:08:03;102218.75;;;22.80;48.64
70833;BME280;58452;59.418;17.962;2022-08-24T11:10:34;102212.63;;;22.94;48.96
70833;BME280;58452;59.418;17.962;2022-08-24T11:13:20;102211.63;;;22.95;48.59
70833;BME280;58452;59.418;17.962;2022-08-24T11:15:58;102211.03;;;23.14;46.69
70833;BME280;58452;59.418;17.962;2022-08-24T11:18:24;102222.88;;;23.25;46.79
70833;BME280;58452;59.418;17.962;2022-08-24T11:20:52;102218.59;;;22.67;47.08
70833;BME280;58452;59.418;17.962;2022-08-24T11:23:22;102215.63;;;22.91;46.55
70833;BME280;58452;59.418;17.962;2022-08-24T11:25:58;102216.66;;;22.75;47.66
70833;BME280;58452;59.418;17.962;2022-08-24T11:30:58;102210.19;;;23.35;46.57
70833;BME280;58452;59.418;17.962;2022-08-24T11:33:32;102218.03;;;23.28;47.58
70833;BME280;58452;59.418;17.962;2022-08-24T11:35:59;102215.50;;;22.78;46.08
70833;BME280;58452;59.418;17.962;2022-08-24T11:38:28;102215.19;;;22.37;47.00
70833;BME280;58452;59.418;17.962;2022-08-24T11:46:37;102214.53;;;23.21;48.97
70833;BME280;58452;59.418;17.962;2022-08-24T11:51:49;102219.25;;;23.75;48.13
70833;BME280;58452;59.418;17.962;2022-08-24T11:57:40;102215.56;;;23.69;47.21
70833;BME280;58452;59.418;17.962;2022-08-24T12:00:13;102217.88;;;23.51;46.87
70833;BME280;58452;59.418;17.962;2022-08-24T12:03:03;102214.63;;;23.77;46.24
70833;BME280;58452;59.418;17.962;2022-08-24T12:05:52;102212.13;;;24.03;45.05
70833;BME280;58452;59.418;17.962;2022-08-24T12:21:21;102207.75;;;24.58;42.51
70833;BME280;58452;59.418;17.962;2022-08-24T12:23:51;102218.81;;;24.33;43.30
70833;BME280;58452;59.418;17.962;2022-08-24T12:26:28;102211.66;;;24.68;44.05
70833;BME280;58452;59.418;17.962;2022-08-24T12:29:00;102210.13;;;24.94;43.02
70833;BME280;58452;59.418;17.962;2022-08-24T12:34:12;102215.03;;;25.16;41.36
70833;BME280;58452;59.418;17.962;2022-08-24T12:36:55;102216.66;;;25.37;41.46
70833;BME280;58452;59.418;17.962;2022-08-24T12:39:29;102215.66;;;25.38;41.76
70833;BME280;58452;59.418;17.962;2022-08-24T12:44:58;102219.16;;;25.52;39.33
70833;BME280;58452;59.418;17.962;2022-08-24T12:47:29;102217.06;;;25.01;40.46
70833;BME280;58452;59.418;17.962;2022-08-24T12:50:12;102220.28;;;24.97;42.73
70833;BME280;58452;59.418;17.962;2022-08-24T13:01:13;102204.81;;;26.05;39.65
70833;BME280;58452;59.418;17.962;2022-08-24T13:03:41;102211.31;;;26.09;40.01
70833;BME280;58452;59.418;17.962;2022-08-24T13:06:18;102206.34;;;26.39;38.57
70833;BME280;58452;59.418;17.962;2022-08-24T13:08:50;102217.50;;;25.77;38.40
70833;BME280;58452;59.418;17.962;2022-08-24T13:14:26;102212.19;;;25.38;40.54
70833;BME280;58452;59.418;17.962;2022-08-24T13:24:40;102212.34;;;26.66;38.54
70833;BME280;58452;59.418;17.962;2022-08-24T13:32:44;102229.53;;;25.60;37.18
70833;BME280;58452;59.418;17.962;2022-08-24T13:41:02;102222.28;;;26.33;38.15
70833;BME280;58452;59.418;17.962;2022-08-24T13:49:35;102233.31;;;26.03;37.68
70833;BME280;58452;59.418;17.962;2022-08-24T14:00:56;102229.72;;;25.78;36.46
70833;BME280;58452;59.418;17.962;2022-08-24T14:04:43;102219.84;;;26.24;36.96
70833;BME280;58452;59.418;17.962;2022-08-24T14:17:37;102219.44;;;26.28;36.11
70833;BME280;58452;59.418;17.962;2022-08-24T14:23:55;102209.75;;;26.53;36.66
70833;BME280;58452;59.418;17.962;2022-08-24T14:39:40;102199.78;;;26.55;35.97
70833;BME280;58452;59.418;17.962;2022-08-24T14:45:06;102207.94;;;25.23;37.57
70833;BME280;58452;59.418;17.962;2022-08-24T14:56:04;102209.25;;;26.24;38.25
70833;BME280;58452;59.418;17.962;2022-08-24T14:58:48;102204.38;;;26.21;37.17
70833;BME280;58452;59.418;17.962;2022-08-24T15:06:55;102202.56;;;26.15;37.62
70833;BME280;58452;59.418;17.962;2022-08-24T15:09:32;102206.41;;;26.26;37.48
70833;BME280;58452;59.418;17.962;2022-08-24T15:12:11;102207.22;;;26.27;36.84
70833;BME280;58452;59.418;17.962;2022-08-24T15:14:46;102206.44;;;26.19;36.29
70833;BME280;58452;59.418;17.962;2022-08-24T15:17:19;102210.00;;;26.38;38.70
70833;BME280;58452;59.418;17.962;2022-08-24T15:22:25;102206.28;;;26.59;36.68
70833;BME280;58452;59.418;17.962;2022-08-24T15:27:53;102209.88;;;26.71;36.59
70833;BME280;58452;59.418;17.962;2022-08-24T15:35:36;102207.09;;;26.59;36.68
70833;BME280;58452;59.418;17.962;2022-08-24T15:41:10;102219.63;;;26.77;36.27
70833;BME280;58452;59.418;17.962;2022-08-24T15:46:20;102220.69;;;27.07;35.92
70833;BME280;58452;59.418;17.962;2022-08-24T15:48:47;102214.69;;;27.43;36.35
70833;BME280;58452;59.418;17.962;2022-08-24T15:54:13;102220.53;;;27.77;35.60
70833;BME280;58452;59.418;17.962;2022-08-24T15:56:45;102224.91;;;27.89;34.11
70833;BME280;58452;59.418;17.962;2022-08-24T15:59:23;102219.13;;;27.92;34.85
70833;BME280;58452;59.418;17.962;2022-08-24T16:10:49;102217.56;;;28.28;33.51
70833;BME280;58452;59.418;17.962;2022-08-24T16:21:36;102215.59;;;29.13;34.48
70833;BME280;58452;59.418;17.962;2022-08-24T16:24:07;102216.78;;;29.40;33.60
70833;BME280;58452;59.418;17.962;2022-08-24T16:32:36;102218.88;;;29.84;33.19
70833;BME280;58452;59.418;17.962;2022-08-24T16:37:25;102211.91;;;30.06;32.57
70833;BME280;58452;59.418;17.962;2022-08-24T16:39:51;102217.44;;;30.17;32.24
70833;BME280;58452;59.418;17.962;2022-08-24T16:42:27;102221.38;;;30.26;32.03
70833;BME280;58452;59.418;17.962;2022-08-24T16:44:54;102225.75;;;30.32;32.34
70833;BME280;58452;59.418;17.962;2022-08-24T16:47:21;102239.53;;;30.29;31.95
70833;BME280;58452;59.418;17.962;2022-08-24T16:49:47;102232.13;;;30.31;32.08
70833;BME280;58452;59.418;17.962;2022-08-24T16:52:13;102226.78;;;30.31;31.87
70833;BME280;58452;59.418;17.962;2022-08-24T16:54:55;102231.06;;;30.32;32.18
70833;BME280;58452;59.418;17.962;2022-08-24T16:57:24;102238.75;;;30.17;31.25
70833;BME280;58452;59.418;17.962;2022-08-24T16:59:52;102245.72;;;30.18;31.58
70833;BME280;58452;59.418;17.962;2022-08-24T17:02:19;102236.69;;;30.19;30.83
70833;BME280;58452;59.418;17.962;2022-08-24T17:04:46;102238.41;;;30.13;30.92
70833;BME280;58452;59.418;17.962;2022-08-24T17:07:15;102236.00;;;30.12;30.31
70833;BME280;58452;59.418;17.962;2022-08-24T17:09:42;102239.50;;;30.00;30.56
70833;BME280;58452;59.418;17.962;2022-08-24T17:12:08;102250.28;;;29.94;30.46
70833;BME280;58452;59.418;17.962;2022-08-24T17:14:35;102245.50;;;29.84;30.71